createdAt,value
2022-08-03T00:01:49.424Z,101717.94
2022-08-03T00:04:16.046Z,101705.03
2022-08-03T00:06:42.493Z,101701.66
2022-08-03T00:09:09.132Z,101712.41
2022-08-03T00:11:36.495Z,101698.78
2022-08-03T00:14:04.979Z,101704.03
2022-08-03T00:16:31.624Z,101708.44
2022-08-03T00:18:58.529Z,101713.31
2022-08-03T00:21:27.931Z,101706.72
2022-08-03T00:23:54.639Z,101703.81
2022-08-03T00:26:21.983Z,101711.31
2022-08-03T00:28:51.156Z,101711.47
2022-08-03T00:31:22.312Z,101701.13
2022-08-03T00:34:04.572Z,101705.66
2022-08-03T00:36:32.806Z,101710.75
2022-08-03T00:39:01.449Z,101701.41
2022-08-03T00:41:28.187Z,101703.94
2022-08-03T00:43:54.825Z,101697.16
2022-08-03T00:46:22.371Z,101699.84
2022-08-03T00:48:53.194Z,101698.97
2022-08-03T00:51:21.594Z,101693.16
2022-08-03T00:53:48.194Z,101691.91
2022-08-03T00:56:15.961Z,101689.34
2022-08-03T00:58:43.753Z,101690.91
2022-08-03T01:01:12.327Z,101686.94
2022-08-03T01:03:39.205Z,101684.66
2022-08-03T01:06:18.721Z,101676.75
2022-08-03T01:09:22.061Z,101676.03
2022-08-03T01:12:01.016Z,101674.59
2022-08-03T01:14:38.209Z,101671.78
2022-08-03T01:17:22.654Z,101673.47
2022-08-03T01:19:56.179Z,101664.00
2022-08-03T01:22:49.996Z,101670.38
2022-08-03T01:25:32.426Z,101666.53
2022-08-03T01:28:17.500Z,101670.19
2022-08-03T01:30:46.777Z,101661.69
2022-08-03T01:33:19.116Z,101661.56
2022-08-03T01:35:50.682Z,101657.31
2022-08-03T01:38:47.678Z,101661.44
2022-08-03T01:41:18.791Z,101669.34
2022-08-03T01:44:01.242Z,101659.00
2022-08-03T01:46:37.517Z,101663.41
2022-08-03T01:49:09.446Z,101661.00
2022-08-03T01:51:57.850Z,101666.53
2022-08-03T01:54:27.045Z,101658.31
2022-08-03T01:56:56.776Z,101659.28
2022-08-03T01:59:26.297Z,101654.91
2022-08-03T02:02:28.812Z,101654.19
2022-08-03T02:04:43.702Z,101642.97
2022-08-03T02:07:12.008Z,101648.63
2022-08-03T02:09:41.464Z,101651.44
2022-08-03T02:12:12.199Z,101650.00
2022-08-03T02:14:40.871Z,101652.81
2022-08-03T02:17:07.817Z,101650.56
2022-08-03T02:19:36.018Z,101654.41
2022-08-03T02:22:04.852Z,101647.47
2022-08-03T02:24:31.970Z,101650.00
2022-08-03T02:26:59.804Z,101646.03
2022-08-03T02:29:38.625Z,101642.22
2022-08-03T02:32:32.593Z,101640.66
2022-08-03T02:35:01.243Z,101636.69
2022-08-03T02:37:34.210Z,101636.69
2022-08-03T02:40:04.898Z,101625.31
2022-08-03T02:42:36.820Z,101632.16
2022-08-03T02:45:07.188Z,101640.47
2022-08-03T02:47:54.241Z,101626.31
2022-08-03T02:50:22.869Z,101623.03
2022-08-03T02:52:51.105Z,101630.69
2022-08-03T02:55:20.758Z,101617.09
2022-08-03T02:57:48.165Z,101620.50
2022-08-03T03:00:27.528Z,101613.16
2022-08-03T03:02:57.920Z,101629.13
2022-08-03T03:05:52.410Z,101625.59
2022-08-03T03:08:18.630Z,101628.00
2022-08-03T03:10:48.172Z,101625.47
2022-08-03T03:13:16.193Z,101622.19
2022-08-03T03:15:45.485Z,101629.75
2022-08-03T03:18:12.913Z,101625.72
2022-08-03T03:20:41.060Z,101625.56
2022-08-03T03:23:09.638Z,101628.69
2022-08-03T03:25:36.622Z,101626.72
2022-08-03T03:28:06.348Z,101627.25
2022-08-03T03:30:33.416Z,101628.09
2022-08-03T03:33:00.079Z,101624.00
2022-08-03T03:35:27.933Z,101630.06
2022-08-03T03:37:54.438Z,101621.47
2022-08-03T03:40:23.608Z,101627.84
2022-08-03T03:42:50.539Z,101621.88
2022-08-03T03:45:17.971Z,101627.97
2022-08-03T03:47:44.613Z,101620.19
2022-08-03T03:50:15.755Z,101623.84
2022-08-03T03:52:42.244Z,101628.38
2022-08-03T03:55:08.898Z,101627.53
2022-08-03T03:57:35.379Z,101629.94
2022-08-03T04:00:02.229Z,101633.03
2022-08-03T04:02:28.740Z,101628.06
2022-08-03T04:05:13.977Z,101630.34
2022-08-03T04:08:15.606Z,101631.31
2022-08-03T04:10:58.443Z,101638.41
2022-08-03T04:16:13.069Z,101631.31
2022-08-03T04:18:43.251Z,101638.66
2022-08-03T04:21:12.945Z,101635.97
2022-08-03T04:23:44.597Z,101633.56
2022-08-03T04:26:13.489Z,101639.78
2022-08-03T04:28:43.448Z,101640.50
2022-08-03T04:31:10.238Z,101643.06
2022-08-03T04:33:39.523Z,101639.66
2022-08-03T04:36:08.932Z,101641.75
2022-08-03T04:42:02.257Z,101648.16
2022-08-03T04:44:40.456Z,101643.06
2022-08-03T04:47:07.464Z,101646.44
2022-08-03T04:49:36.613Z,101655.34
2022-08-03T04:52:03.765Z,101658.75
2022-08-03T04:54:30.697Z,101659.47
2022-08-03T04:56:57.198Z,101655.94
2022-08-03T04:59:23.835Z,101663.00
2022-08-03T05:01:50.378Z,101650.31
2022-08-03T05:04:16.866Z,101670.06
2022-08-03T05:06:48.023Z,101666.13
2022-08-03T05:09:14.914Z,101666.72
2022-08-03T05:11:41.418Z,101663.06
2022-08-03T05:14:07.927Z,101665.50
2022-08-03T05:16:34.612Z,101660.56
2022-08-03T05:19:01.206Z,101667.06
2022-08-03T05:21:50.395Z,101670.34
2022-08-03T05:24:14.088Z,101670.06
2022-08-03T05:26:40.611Z,101669.94
2022-08-03T05:29:07.298Z,101665.81
2022-08-03T05:31:36.838Z,101665.53
2022-08-03T05:34:03.358Z,101666.13
2022-08-03T05:36:29.810Z,101668.53
2022-08-03T05:39:00.809Z,101666.28
2022-08-03T05:41:36.602Z,101659.84
2022-08-03T05:44:04.157Z,101666.63
2022-08-03T05:46:30.547Z,101663.66
2022-08-03T05:48:57.032Z,101672.75
2022-08-03T05:51:23.540Z,101664.38
2022-08-03T05:53:49.945Z,101675.84
2022-08-03T05:56:17.031Z,101661.69
2022-08-03T05:58:45.307Z,101666.53
2022-08-03T06:01:11.935Z,101664.28
2022-08-03T06:03:38.419Z,101657.06
2022-08-03T06:06:04.952Z,101660.47
2022-08-03T06:08:31.476Z,101652.41
2022-08-03T06:11:00.965Z,101669.53
2022-08-03T06:13:27.477Z,101661.34
2022-08-03T06:15:53.909Z,101674.22
2022-08-03T06:18:24.502Z,101669.69
2022-08-03T06:20:52.311Z,101675.75
2022-08-03T06:23:19.021Z,101675.63
2022-08-03T06:25:45.995Z,101675.91
2022-08-03T06:28:51.705Z,101674.78
2022-08-03T06:31:06.592Z,101671.94
2022-08-03T06:34:30.933Z,101677.03
2022-08-03T06:36:20.543Z,101676.94
2022-08-03T06:38:49.926Z,101676.22
2022-08-03T06:41:16.551Z,101672.25
2022-08-03T06:44:03.734Z,101670.56
2022-08-03T06:46:29.474Z,101684.66
2022-08-03T06:48:57.183Z,101683.66
2022-08-03T06:52:03.797Z,101688.47
2022-08-03T06:54:10.827Z,101681.69
2022-08-03T06:56:37.294Z,101674.31
2022-08-03T06:59:03.813Z,101682.41
2022-08-03T07:01:32.611Z,101692.16
2022-08-03T07:04:00.469Z,101688.06
2022-08-03T07:06:27.048Z,101691.31
2022-08-03T07:08:57.717Z,101700.66
2022-08-03T07:11:25.906Z,101692.16
2022-08-03T07:13:52.429Z,101688.31
2022-08-03T07:16:19.049Z,101688.47
2022-08-03T07:18:45.562Z,101692.44
2022-08-03T07:21:12.792Z,101701.34
2022-08-03T07:23:39.312Z,101699.69
2022-08-03T07:26:05.925Z,101702.91
2022-08-03T07:28:35.278Z,101710.72
2022-08-03T07:31:01.746Z,101705.72
2022-08-03T07:33:28.340Z,101708.53
2022-08-03T07:35:54.794Z,101709.53
2022-08-03T07:38:21.383Z,101709.28
2022-08-03T07:40:47.945Z,101709.66
2022-08-03T07:43:14.488Z,101718.88
2022-08-03T07:45:41.101Z,101717.53
2022-08-03T07:48:11.965Z,101708.34
2022-08-03T07:50:38.986Z,101716.25
2022-08-03T07:53:05.731Z,101714.63
2022-08-03T07:55:32.209Z,101727.00
2022-08-03T07:58:21.921Z,101737.13
2022-08-03T08:00:53.504Z,101728.34
2022-08-03T08:03:21.818Z,101726.63
2022-08-03T08:05:49.212Z,101731.69
2022-08-03T08:08:15.765Z,101727.41
2022-08-03T08:10:42.218Z,101720.41
2022-08-03T08:13:24.742Z,101725.25
2022-08-03T08:15:51.234Z,101724.13
2022-08-03T08:20:58.955Z,101725.25
2022-08-03T08:23:43.654Z,101724.13
2022-08-03T08:26:11.004Z,101724.13
2022-08-03T08:28:37.493Z,101727.78
2022-08-03T08:31:04.105Z,101728.56
2022-08-03T08:34:01.012Z,101729.19
2022-08-03T08:36:17.446Z,101729.38
2022-08-03T08:38:45.231Z,101727.28
2022-08-03T08:41:14.223Z,101728.97
2022-08-03T08:43:41.551Z,101731.63
2022-08-03T08:46:23.643Z,101727.28
2022-08-03T08:48:51.961Z,101726.38
2022-08-03T08:51:20.552Z,101725.34
2022-08-03T08:53:51.625Z,101732.84
2022-08-03T08:58:59.080Z,101734.47
2022-08-03T09:01:26.532Z,101728.50
2022-08-03T09:03:54.294Z,101726.28
2022-08-03T09:06:22.898Z,101727.38
2022-08-03T09:08:49.574Z,101724.56
2022-08-03T09:11:16.068Z,101715.28
2022-08-03T09:13:42.823Z,101711.59
2022-08-03T09:16:17.624Z,101725.59
2022-08-03T09:18:47.634Z,101728.00
2022-08-03T09:21:33.610Z,101722.13
2022-08-03T09:24:05.648Z,101724.00
2022-08-03T09:26:35.287Z,101726.41
2022-08-03T09:29:13.531Z,101722.13
2022-08-03T09:31:44.524Z,101731.13
2022-08-03T09:34:17.701Z,101726.72
2022-08-03T09:36:48.838Z,101731.78
2022-08-03T09:39:17.496Z,101731.63
2022-08-03T09:41:48.604Z,101728.44
2022-08-03T09:44:25.315Z,101730.97
2022-08-03T09:46:56.718Z,101723.31
2022-08-03T09:49:24.381Z,101725.53
2022-08-03T09:52:31.676Z,101728.56
2022-08-03T09:54:38.392Z,101730.78
2022-08-03T09:57:04.924Z,101726.91
2022-08-03T09:59:33.864Z,101739.78
2022-08-03T10:02:01.744Z,101741.00
2022-08-03T10:04:28.645Z,101740.94
2022-08-03T10:07:06.976Z,101741.13
2022-08-03T10:09:33.516Z,101730.13
2022-08-03T10:12:08.542Z,101735.19
2022-08-03T10:14:37.647Z,101734.66
2022-08-03T10:17:04.485Z,101730.16
2022-08-03T10:19:31.146Z,101730.06
2022-08-03T10:22:23.333Z,101731.25
2022-08-03T10:24:56.305Z,101737.78
2022-08-03T10:27:25.037Z,101732.75
2022-08-03T10:29:55.018Z,101736.41
2022-08-03T10:32:28.793Z,101728.88
2022-08-03T10:35:04.028Z,101734.41
2022-08-03T10:37:57.353Z,101722.25
2022-08-03T10:43:21.960Z,101725.47
2022-08-03T10:45:49.077Z,101723.22
2022-08-03T10:48:17.214Z,101724.47
2022-08-03T10:50:44.662Z,101721.09
2022-08-03T10:53:11.150Z,101720.38
2022-08-03T10:56:05.615Z,101715.03
2022-08-03T10:58:57.014Z,101722.19
2022-08-03T11:01:58.498Z,101715.53
2022-08-03T11:04:29.176Z,101718.09
2022-08-03T11:07:15.800Z,101709.47
2022-08-03T11:09:50.463Z,101715.69
2022-08-03T11:12:31.177Z,101696.19
2022-08-03T11:15:07.160Z,101702.69
2022-08-03T11:17:45.944Z,101708.28
2022-08-03T11:20:49.929Z,101706.25
2022-08-03T11:23:20.260Z,101701.44
2022-08-03T11:26:13.303Z,101704.66
2022-08-03T11:28:41.050Z,101708.59
2022-08-03T11:31:46.679Z,101717.06
2022-08-03T11:34:10.607Z,101705.22
2022-08-03T11:37:14.758Z,101701.59
2022-08-03T11:39:46.335Z,101694.06
2022-08-03T11:42:25.399Z,101697.97
2022-08-03T11:44:56.583Z,101698.28
2022-08-03T11:47:25.628Z,101714.59
2022-08-03T11:49:57.297Z,101705.13
2022-08-03T11:52:26.966Z,101696.41
2022-08-03T11:54:56.592Z,101699.56
2022-08-03T11:59:16.850Z,101695.31
2022-08-03T12:00:22.590Z,101707.69
2022-08-03T12:03:07.547Z,101704.06
2022-08-03T12:05:34.053Z,101698.28
2022-08-03T12:08:03.971Z,101698.56
2022-08-03T12:10:33.018Z,101694.44
2022-08-03T12:13:01.244Z,101693.16
2022-08-03T12:15:33.973Z,101698.72
2022-08-03T12:18:01.937Z,101695.16
2022-08-03T12:20:34.874Z,101693.03
2022-08-03T12:23:04.361Z,101697.28
2022-08-03T12:25:38.663Z,101690.88
2022-08-03T12:28:35.836Z,101689.13
2022-08-03T12:31:02.500Z,101692.13
2022-08-03T12:33:29.282Z,101689.19
2022-08-03T12:36:08.302Z,101681.47
2022-08-03T12:38:39.541Z,101687.03
2022-08-03T12:41:08.734Z,101681.41
2022-08-03T12:43:39.409Z,101684.63
2022-08-03T12:46:15.530Z,101685.50
2022-08-03T12:49:06.612Z,101674.75
2022-08-03T12:51:43.686Z,101675.53
2022-08-03T12:54:16.724Z,101666.22
2022-08-03T12:57:16.339Z,101682.44
2022-08-03T12:59:53.082Z,101678.13
2022-08-03T13:02:23.735Z,101681.94
2022-08-03T13:07:41.373Z,101677.19
2022-08-03T13:10:26.950Z,101676.38
2022-08-03T13:12:53.611Z,101671.47
2022-08-03T13:15:20.187Z,101666.66
2022-08-03T13:17:46.679Z,101666.88
2022-08-03T13:20:13.375Z,101664.41
2022-08-03T13:22:39.901Z,101660.28
2022-08-03T13:25:06.594Z,101664.66
2022-08-03T13:28:04.259Z,101671.25
2022-08-03T13:30:28.191Z,101667.97
2022-08-03T13:32:58.564Z,101660.13
2022-08-03T13:35:25.383Z,101670.97
2022-08-03T13:37:51.900Z,101668.66
2022-08-03T13:40:18.456Z,101666.13
2022-08-03T13:42:50.039Z,101665.19
2022-08-03T13:45:16.547Z,101665.06
2022-08-03T13:47:43.199Z,101669.47
2022-08-03T13:50:09.897Z,101667.72
2022-08-03T13:52:36.631Z,101666.63
2022-08-03T13:55:05.067Z,101661.50
2022-08-03T13:58:03.515Z,101664.72
2022-08-03T14:00:28.212Z,101659.44
2022-08-03T14:03:14.195Z,101665.28
2022-08-03T14:05:42.821Z,101660.56
2022-08-03T14:08:10.290Z,101662.31
2022-08-03T14:10:38.743Z,101659.84
2022-08-03T14:13:06.049Z,101653.78
2022-08-03T14:15:37.496Z,101665.06
2022-08-03T14:18:04.843Z,101657.69
2022-08-03T14:20:46.976Z,101668.28
2022-08-03T14:23:17.414Z,101654.66
2022-08-03T14:25:51.961Z,101658.75
2022-08-03T14:28:20.593Z,101649.59
2022-08-03T14:30:47.804Z,101652.72
2022-08-03T14:33:14.772Z,101652.28
2022-08-03T14:35:41.220Z,101644.53
2022-08-03T14:38:07.725Z,101657.41
2022-08-03T14:40:34.243Z,101656.78
2022-08-03T14:43:00.858Z,101648.78
2022-08-03T14:45:27.651Z,101648.19
2022-08-03T14:50:10.424Z,101664.72
2022-08-03T14:50:44.459Z,101646.63
2022-08-03T14:53:13.665Z,101647.69
2022-08-03T14:55:50.334Z,101644.97
2022-08-03T14:58:20.604Z,101652.56
2022-08-03T15:00:47.501Z,101639.50
2022-08-03T15:03:16.743Z,101633.19
2022-08-03T15:05:44.262Z,101636.13
2022-08-03T15:10:51.957Z,101633.81
2022-08-03T15:13:19.539Z,101637.19
2022-08-03T15:15:49.083Z,101638.22
2022-08-03T15:18:16.113Z,101636.75
2022-08-03T15:20:45.365Z,101640.53
2022-08-03T15:23:14.078Z,101637.19
2022-08-03T15:26:30.239Z,101633.19
2022-08-03T15:28:27.244Z,101635.91
2022-08-03T15:30:53.866Z,101632.97
2022-08-03T15:33:20.526Z,101637.38
2022-08-03T15:35:47.610Z,101629.81
2022-08-03T15:38:14.172Z,101643.47
2022-08-03T15:40:40.776Z,101634.88
2022-08-03T15:43:07.480Z,101641.16
2022-08-03T15:45:36.080Z,101636.53
2022-08-03T15:48:04.795Z,101633.59
2022-08-03T15:50:31.525Z,101624.97
2022-08-03T15:52:58.055Z,101638.66
2022-08-03T15:55:24.697Z,101628.56
2022-08-03T15:59:09.356Z,101633.53
2022-08-03T16:00:38.067Z,101624.63
2022-08-03T16:03:04.745Z,101622.47
2022-08-03T16:05:31.373Z,101633.22
2022-08-03T16:08:02.852Z,101630.69
2022-08-03T16:10:31.834Z,101631.41
2022-08-03T16:13:01.429Z,101632.09
2022-08-03T16:15:28.235Z,101621.91
2022-08-03T16:17:54.821Z,101636.81
2022-08-03T16:20:31.686Z,101625.81
2022-08-03T16:23:11.627Z,101627.91
2022-08-03T16:25:40.478Z,101627.69
2022-08-03T16:28:13.100Z,101634.53
2022-08-03T16:30:42.113Z,101636.22
2022-08-03T16:33:09.094Z,101635.19
2022-08-03T16:35:35.987Z,101633.00
2022-08-03T16:38:09.208Z,101636.47
2022-08-03T16:40:36.299Z,101634.94
2022-08-03T16:43:18.594Z,101627.81
2022-08-03T16:45:46.750Z,101632.31
2022-08-03T16:48:13.755Z,101619.91
2022-08-03T16:50:40.266Z,101633.16
2022-08-03T16:53:09.014Z,101626.69
2022-08-03T16:55:48.418Z,101621.66
2022-08-03T16:58:19.669Z,101617.91
2022-08-03T17:01:10.910Z,101623.34
2022-08-03T17:03:57.460Z,101628.47
2022-08-03T17:06:34.340Z,101614.56
2022-08-03T17:09:01.917Z,101617.94
2022-08-03T17:11:32.971Z,101606.97
2022-08-03T17:14:00.004Z,101622.13
2022-08-03T17:16:27.049Z,101620.81
2022-08-03T17:19:04.016Z,101624.00
2022-08-03T17:21:32.450Z,101618.34
2022-08-03T17:24:35.611Z,101622.69
2022-08-03T17:27:23.155Z,101619.75
2022-08-03T17:30:00.993Z,101616.03
2022-08-03T17:32:32.341Z,101617.63
2022-08-03T17:34:58.925Z,101612.72
2022-08-03T17:37:49.962Z,101620.63
2022-08-03T17:40:18.000Z,101623.06
2022-08-03T17:42:46.257Z,101617.34
2022-08-03T17:45:17.739Z,101624.19
2022-08-03T17:47:45.522Z,101627.13
2022-08-03T17:50:28.875Z,101615.44
2022-08-03T17:53:07.114Z,101614.84
2022-08-03T17:55:55.495Z,101622.94
2022-08-03T17:58:41.434Z,101619.75
2022-08-03T18:02:00.694Z,101616.59
2022-08-03T18:04:21.820Z,101621.06
2022-08-03T18:06:59.666Z,101618.34
2022-08-03T18:10:03.838Z,101619.75
2022-08-03T18:12:26.997Z,101618.19
2022-08-03T18:15:01.340Z,101620.34
2022-08-03T18:17:55.887Z,101610.50
2022-08-03T18:20:34.772Z,101618.56
2022-08-03T18:23:08.675Z,101614.16
2022-08-03T18:25:45.337Z,101618.56
2022-08-03T18:28:16.332Z,101618.38
2022-08-03T18:30:54.688Z,101620.31
2022-08-03T18:34:19.211Z,101621.41
2022-08-03T18:36:21.793Z,101621.88
2022-08-03T18:39:05.296Z,101629.41
2022-08-03T18:41:34.781Z,101615.31
2022-08-03T18:44:09.548Z,101612.47
2022-08-03T18:47:22.864Z,101613.19
2022-08-03T18:50:27.004Z,101615.06
2022-08-03T18:54:02.159Z,101614.38
2022-08-03T18:56:26.920Z,101608.84
2022-08-03T18:59:15.797Z,101620.91
2022-08-03T19:02:01.012Z,101609.75
2022-08-03T19:04:35.456Z,101611.50
2022-08-03T19:07:07.013Z,101613.88
2022-08-03T19:09:43.121Z,101622.06
2022-08-03T19:12:30.851Z,101619.06
2022-08-03T19:15:04.958Z,101620.63
2022-08-03T19:17:36.029Z,101621.88
2022-08-03T19:20:08.884Z,101618.38
2022-08-03T19:22:37.973Z,101619.22
2022-08-03T19:25:06.951Z,101625.84
2022-08-03T19:27:39.772Z,101624.16
2022-08-03T19:30:21.852Z,101624.84
2022-08-03T19:32:54.229Z,101622.66
2022-08-03T19:35:51.678Z,101634.00
2022-08-03T19:38:09.048Z,101628.78
2022-08-03T19:40:42.114Z,101626.97
2022-08-03T19:43:32.950Z,101632.72
2022-08-03T19:46:16.380Z,101621.25
2022-08-03T19:48:51.909Z,101627.19
2022-08-03T19:51:20.327Z,101630.72
2022-08-03T19:54:09.449Z,101638.53
2022-08-03T19:56:46.233Z,101631.94
2022-08-03T19:59:16.058Z,101639.91
2022-08-03T20:01:50.447Z,101625.66
2022-08-03T20:04:17.681Z,101633.28
2022-08-03T20:06:47.961Z,101633.47
2022-08-03T20:09:18.090Z,101626.00
2022-08-03T20:11:45.117Z,101623.13
2022-08-03T20:16:59.094Z,101615.53
2022-08-03T20:19:32.732Z,101614.50
2022-08-03T20:22:01.973Z,101617.91
2022-08-03T20:24:34.341Z,101617.53
2022-08-03T20:27:03.644Z,101609.22
2022-08-03T20:30:06.355Z,101611.38
2022-08-03T20:32:25.368Z,101612.91
2022-08-03T20:34:52.938Z,101617.97
2022-08-03T20:37:19.792Z,101613.75
2022-08-03T20:39:48.168Z,101608.31
2022-08-03T20:42:21.605Z,101615.75
2022-08-03T20:45:04.554Z,101613.53
2022-08-03T20:47:36.769Z,101614.19
2022-08-03T20:50:16.845Z,101610.31
2022-08-03T20:52:43.996Z,101609.44
2022-08-03T20:55:16.935Z,101614.16
2022-08-03T20:57:43.557Z,101601.13
2022-08-03T21:00:19.455Z,101595.50
2022-08-03T21:02:48.665Z,101598.22
2022-08-03T21:05:15.222Z,101588.69
2022-08-03T21:08:05.126Z,101600.53
2022-08-03T21:10:37.847Z,101594.41
2022-08-03T21:13:03.679Z,101620.78
2022-08-03T21:13:24.664Z,101595.91
2022-08-03T21:16:11.593Z,101584.91
2022-08-03T21:18:48.802Z,101589.44
2022-08-03T21:21:18.097Z,101583.69
2022-08-03T21:24:05.060Z,101574.38
2022-08-03T21:26:33.657Z,101585.19
2022-08-03T21:29:03.271Z,101582.97
2022-08-03T21:31:29.963Z,101580.41
2022-08-03T21:33:59.532Z,101578.03
2022-08-03T21:36:27.919Z,101564.84
2022-08-03T21:38:55.909Z,101568.72
2022-08-03T21:41:23.511Z,101576.16
2022-08-03T21:43:50.008Z,101564.66
2022-08-03T21:46:19.361Z,101564.28
2022-08-03T21:48:48.493Z,101569.16
2022-08-03T21:51:17.344Z,101567.47
2022-08-03T21:54:02.978Z,101571.88
2022-08-03T21:56:51.251Z,101562.38
2022-08-03T21:59:20.255Z,101566.75
2022-08-03T22:01:48.824Z,101561.50
2022-08-03T22:04:45.922Z,101561.00
2022-08-03T22:07:07.473Z,101556.59
2022-08-03T22:09:35.228Z,101554.34
2022-08-03T22:12:01.733Z,101559.06
2022-08-03T22:14:28.989Z,101554.28
2022-08-03T22:16:56.279Z,101555.28
2022-08-03T22:19:22.694Z,101553.06
2022-08-03T22:21:49.784Z,101547.84
2022-08-03T22:24:19.641Z,101544.75
2022-08-03T22:27:09.716Z,101553.19
2022-08-03T22:29:39.567Z,101544.41
2022-08-03T22:32:06.941Z,101550.09
2022-08-03T22:34:34.260Z,101545.88
2022-08-03T22:37:04.797Z,101551.75
2022-08-03T22:39:32.445Z,101544.81
2022-08-03T22:41:59.438Z,101541.41
2022-08-03T22:44:27.480Z,101551.53
2022-08-03T22:46:55.431Z,101549.81
2022-08-03T22:49:22.333Z,101547.44
2022-08-03T22:51:51.567Z,101556.69
2022-08-03T22:54:18.088Z,101557.53
2022-08-03T22:56:46.916Z,101554.16
2022-08-03T22:59:40.858Z,101547.34
2022-08-03T23:02:20.264Z,101557.44
2022-08-03T23:04:54.342Z,101553.47
2022-08-03T23:07:27.829Z,101558.28
2022-08-03T23:09:56.214Z,101560.59
2022-08-03T23:12:24.041Z,101552.97
2022-08-03T23:14:56.188Z,101561.91
2022-08-03T23:17:24.059Z,101558.38
2022-08-03T23:20:12.450Z,101564.78
2022-08-03T23:22:42.890Z,101560.22
2022-08-03T23:25:10.241Z,101565.94
2022-08-03T23:27:40.256Z,101562.69
2022-08-03T23:30:08.971Z,101559.47
2022-08-03T23:32:36.557Z,101563.84
2022-08-03T23:36:22.620Z,101548.09
2022-08-03T23:38:22.448Z,101559.03
2022-08-03T23:40:51.239Z,101562.19
2022-08-03T23:43:39.884Z,101549.34
2022-08-03T23:46:08.927Z,101554.56
2022-08-03T23:51:34.660Z,101552.34
2022-08-03T23:54:31.108Z,101555.34
2022-08-03T23:57:31.815Z,101556.63
